sensor_id;sensor_type;location;lat;lon;timestamp;P1;durP1;ratioP1;P2;durP2;ratioP2
39620;SDS011;25309;48.686;9.170;2023-12-07T00:02:07;7.60;;;5.57;;
39620;SDS011;25309;48.686;9.170;2023-12-07T00:04:35;8.03;;;5.20;;
39620;SDS011;25309;48.686;9.170;2023-12-07T00:07:03;8.63;;;5.53;;
39620;SDS011;25309;48.686;9.170;2023-12-07T00:09:30;6.60;;;4.77;;
39620;SDS011;25309;48.686;9.170;2023-12-07T00:11:57;7.67;;;5.13;;
39620;SDS011;25309;48.686;9.170;2023-12-07T00:14:24;6.37;;;4.83;;
39620;SDS011;25309;48.686;9.170;2023-12-07T00:16:51;7.90;;;5.50;;
39620;SDS011;25309;48.686;9.170;2023-12-07T00:19:18;7.70;;;5.53;;
39620;SDS011;25309;48.686;9.170;2023-12-07T00:21:46;9.70;;;5.93;;
39620;SDS011;25309;48.686;9.170;2023-12-07T00:24:13;9.33;;;6.33;;
39620;SDS011;25309;48.686;9.170;2023-12-07T00:26:40;10.10;;;5.77;;
39620;SDS011;25309;48.686;9.170;2023-12-07T00:29:07;8.10;;;5.00;;
39620;SDS011;25309;48.686;9.170;2023-12-07T00:31:34;6.70;;;4.43;;
39620;SDS011;25309;48.686;9.170;2023-12-07T00:34:01;9.53;;;5.00;;
39620;SDS011;25309;48.686;9.170;2023-12-07T00:36:28;8.90;;;5.70;;
39620;SDS011;25309;48.686;9.170;2023-12-07T00:38:56;9.87;;;5.47;;
39620;SDS011;25309;48.686;9.170;2023-12-07T00:41:23;7.97;;;5.37;;
39620;SDS011;25309;48.686;9.170;2023-12-07T00:43:50;8.60;;;5.57;;
39620;SDS011;25309;48.686;9.170;2023-12-07T00:46:17;7.10;;;4.60;;
39620;SDS011;25309;48.686;9.170;2023-12-07T00:48:44;8.13;;;5.27;;
39620;SDS011;25309;48.686;9.170;2023-12-07T00:51:11;8.40;;;5.43;;
39620;SDS011;25309;48.686;9.170;2023-12-07T00:53:38;9.10;;;5.17;;
39620;SDS011;25309;48.686;9.170;2023-12-07T00:56:07;8.27;;;5.23;;
39620;SDS011;25309;48.686;9.170;2023-12-07T00:58:34;8.90;;;5.20;;
39620;SDS011;25309;48.686;9.170;2023-12-07T01:01:02;8.17;;;5.47;;
39620;SDS011;25309;48.686;9.170;2023-12-07T01:03:30;7.60;;;5.20;;
39620;SDS011;25309;48.686;9.170;2023-12-07T01:05:57;7.47;;;4.40;;
39620;SDS011;25309;48.686;9.170;2023-12-07T01:08:24;7.20;;;4.40;;
39620;SDS011;25309;48.686;9.170;2023-12-07T01:10:51;7.77;;;5.20;;
39620;SDS011;25309;48.686;9.170;2023-12-07T01:13:19;8.30;;;5.60;;
39620;SDS011;25309;48.686;9.170;2023-12-07T01:15:46;8.70;;;5.17;;
39620;SDS011;25309;48.686;9.170;2023-12-07T01:18:13;7.33;;;4.60;;
39620;SDS011;25309;48.686;9.170;2023-12-07T01:20:40;9.00;;;5.07;;
39620;SDS011;25309;48.686;9.170;2023-12-07T01:23:07;7.57;;;4.97;;
39620;SDS011;25309;48.686;9.170;2023-12-07T01:25:36;7.07;;;4.63;;
39620;SDS011;25309;48.686;9.170;2023-12-07T01:28:03;6.30;;;4.40;;
39620;SDS011;25309;48.686;9.170;2023-12-07T01:30:33;7.27;;;4.80;;
39620;SDS011;25309;48.686;9.170;2023-12-07T01:33:00;7.17;;;4.70;;
39620;SDS011;25309;48.686;9.170;2023-12-07T01:35:26;8.17;;;5.10;;
39620;SDS011;25309;48.686;9.170;2023-12-07T01:37:55;7.20;;;5.00;;
39620;SDS011;25309;48.686;9.170;2023-12-07T01:40:21;8.23;;;5.47;;
39620;SDS011;25309;48.686;9.170;2023-12-07T01:42:49;7.97;;;5.37;;
39620;SDS011;25309;48.686;9.170;2023-12-07T01:45:17;6.53;;;5.00;;
39620;SDS011;25309;48.686;9.170;2023-12-07T01:47:45;7.70;;;5.10;;
39620;SDS011;25309;48.686;9.170;2023-12-07T01:50:13;7.87;;;5.60;;
39620;SDS011;25309;48.686;9.170;2023-12-07T01:52:43;7.63;;;5.20;;
39620;SDS011;25309;48.686;9.170;2023-12-07T01:55:13;8.13;;;4.87;;
39620;SDS011;25309;48.686;9.170;2023-12-07T01:57:41;6.73;;;4.50;;
39620;SDS011;25309;48.686;9.170;2023-12-07T02:00:09;9.07;;;5.30;;
39620;SDS011;25309;48.686;9.170;2023-12-07T02:02:37;7.87;;;4.90;;
39620;SDS011;25309;48.686;9.170;2023-12-07T02:05:06;9.10;;;4.90;;
39620;SDS011;25309;48.686;9.170;2023-12-07T02:07:33;6.70;;;4.53;;
39620;SDS011;25309;48.686;9.170;2023-12-07T02:10:00;6.37;;;4.23;;
39620;SDS011;25309;48.686;9.170;2023-12-07T02:12:28;6.97;;;4.53;;
39620;SDS011;25309;48.686;9.170;2023-12-07T02:14:57;9.27;;;4.80;;
39620;SDS011;25309;48.686;9.170;2023-12-07T02:17:26;7.50;;;4.80;;
39620;SDS011;25309;48.686;9.170;2023-12-07T02:20:00;8.27;;;5.20;;
39620;SDS011;25309;48.686;9.170;2023-12-07T02:22:35;7.67;;;5.07;;
39620;SDS011;25309;48.686;9.170;2023-12-07T02:25:06;7.97;;;5.10;;
39620;SDS011;25309;48.686;9.170;2023-12-07T02:27:37;6.27;;;4.67;;
39620;SDS011;25309;48.686;9.170;2023-12-07T02:30:05;7.17;;;4.83;;
39620;SDS011;25309;48.686;9.170;2023-12-07T02:32:33;6.93;;;4.40;;
39620;SDS011;25309;48.686;9.170;2023-12-07T02:35:00;7.50;;;4.93;;
39620;SDS011;25309;48.686;9.170;2023-12-07T02:37:28;7.27;;;4.73;;
39620;SDS011;25309;48.686;9.170;2023-12-07T02:40:00;7.53;;;4.77;;
39620;SDS011;25309;48.686;9.170;2023-12-07T02:42:30;7.37;;;4.97;;
39620;SDS011;25309;48.686;9.170;2023-12-07T02:45:01;7.80;;;5.13;;
39620;SDS011;25309;48.686;9.170;2023-12-07T02:47:29;7.70;;;5.23;;
39620;SDS011;25309;48.686;9.170;2023-12-07T02:49:56;6.70;;;5.27;;
39620;SDS011;25309;48.686;9.170;2023-12-07T02:52:23;6.73;;;5.00;;
39620;SDS011;25309;48.686;9.170;2023-12-07T02:54:51;8.10;;;5.10;;
39620;SDS011;25309;48.686;9.170;2023-12-07T02:57:18;7.77;;;5.50;;
39620;SDS011;25309;48.686;9.170;2023-12-07T02:59:45;8.43;;;5.47;;
39620;SDS011;25309;48.686;9.170;2023-12-07T03:02:13;8.30;;;5.67;;
39620;SDS011;25309;48.686;9.170;2023-12-07T03:04:40;10.47;;;5.87;;
39620;SDS011;25309;48.686;9.170;2023-12-07T03:07:07;9.27;;;5.70;;
39620;SDS011;25309;48.686;9.170;2023-12-07T03:09:34;8.40;;;5.40;;
39620;SDS011;25309;48.686;9.170;2023-12-07T03:12:01;9.23;;;6.10;;
39620;SDS011;25309;48.686;9.170;2023-12-07T03:14:28;8.77;;;6.63;;
39620;SDS011;25309;48.686;9.170;2023-12-07T03:16:55;10.70;;;6.80;;
39620;SDS011;25309;48.686;9.170;2023-12-07T03:19:24;11.00;;;7.10;;
39620;SDS011;25309;48.686;9.170;2023-12-07T03:21:51;11.80;;;7.63;;
39620;SDS011;25309;48.686;9.170;2023-12-07T03:24:18;11.00;;;6.83;;
39620;SDS011;25309;48.686;9.170;2023-12-07T03:26:45;10.70;;;7.37;;
39620;SDS011;25309;48.686;9.170;2023-12-07T03:29:12;10.37;;;7.17;;
39620;SDS011;25309;48.686;9.170;2023-12-07T03:31:39;11.53;;;7.33;;
39620;SDS011;25309;48.686;9.170;2023-12-07T03:34:06;11.10;;;7.53;;
39620;SDS011;25309;48.686;9.170;2023-12-07T03:36:35;11.90;;;8.00;;
39620;SDS011;25309;48.686;9.170;2023-12-07T03:39:02;9.97;;;7.00;;
39620;SDS011;25309;48.686;9.170;2023-12-07T03:41:31;11.07;;;6.97;;
39620;SDS011;25309;48.686;9.170;2023-12-07T03:43:58;10.10;;;7.03;;
39620;SDS011;25309;48.686;9.170;2023-12-07T03:46:25;10.83;;;7.13;;
39620;SDS011;25309;48.686;9.170;2023-12-07T03:48:52;12.93;;;7.43;;
39620;SDS011;25309;48.686;9.170;2023-12-07T03:51:19;11.70;;;7.37;;
39620;SDS011;25309;48.686;9.170;2023-12-07T03:53:47;12.10;;;7.30;;
39620;SDS011;25309;48.686;9.170;2023-12-07T03:56:22;11.73;;;7.10;;
39620;SDS011;25309;48.686;9.170;2023-12-07T03:58:49;10.77;;;6.87;;
39620;SDS011;25309;48.686;9.170;2023-12-07T04:01:16;11.57;;;7.20;;
39620;SDS011;25309;48.686;9.170;2023-12-07T04:03:43;10.60;;;6.93;;
39620;SDS011;25309;48.686;9.170;2023-12-07T04:06:10;13.13;;;8.17;;
39620;SDS011;25309;48.686;9.170;2023-12-07T04:08:37;12.20;;;8.03;;
39620;SDS011;25309;48.686;9.170;2023-12-07T04:11:05;13.70;;;8.43;;
39620;SDS011;25309;48.686;9.170;2023-12-07T04:13:33;11.57;;;7.70;;
39620;SDS011;25309;48.686;9.170;2023-12-07T04:16:00;10.60;;;7.13;;
39620;SDS011;25309;48.686;9.170;2023-12-07T04:18:27;11.63;;;7.30;;
39620;SDS011;25309;48.686;9.170;2023-12-07T04:20:54;11.90;;;8.10;;
39620;SDS011;25309;48.686;9.170;2023-12-07T04:23:21;14.27;;;7.90;;
39620;SDS011;25309;48.686;9.170;2023-12-07T04:25:47;11.87;;;7.73;;
39620;SDS011;25309;48.686;9.170;2023-12-07T04:28:16;11.20;;;6.70;;
39620;SDS011;25309;48.686;9.170;2023-12-07T04:30:43;12.60;;;8.23;;
39620;SDS011;25309;48.686;9.170;2023-12-07T04:33:10;10.23;;;7.20;;
39620;SDS011;25309;48.686;9.170;2023-12-07T04:35:37;10.83;;;7.73;;
39620;SDS011;25309;48.686;9.170;2023-12-07T04:38:04;9.53;;;6.93;;
39620;SDS011;25309;48.686;9.170;2023-12-07T04:40:31;11.37;;;7.30;;
39620;SDS011;25309;48.686;9.170;2023-12-07T04:42:58;11.37;;;7.40;;
39620;SDS011;25309;48.686;9.170;2023-12-07T04:45:27;9.13;;;6.30;;
39620;SDS011;25309;48.686;9.170;2023-12-07T04:47:54;14.70;;;9.33;;
39620;SDS011;25309;48.686;9.170;2023-12-07T04:50:23;14.70;;;8.40;;
39620;SDS011;25309;48.686;9.170;2023-12-07T04:52:50;10.10;;;6.37;;
39620;SDS011;25309;48.686;9.170;2023-12-07T04:55:17;10.47;;;6.70;;
39620;SDS011;25309;48.686;9.170;2023-12-07T04:57:44;9.30;;;6.20;;
39620;SDS011;25309;48.686;9.170;2023-12-07T05:00:11;11.43;;;7.07;;
39620;SDS011;25309;48.686;9.170;2023-12-07T05:02:41;10.97;;;7.33;;
39620;SDS011;25309;48.686;9.170;2023-12-07T05:05:08;10.17;;;6.77;;
39620;SDS011;25309;48.686;9.170;2023-12-07T05:07:35;11.27;;;7.53;;
39620;SDS011;25309;48.686;9.170;2023-12-07T05:10:02;14.07;;;7.60;;
39620;SDS011;25309;48.686;9.170;2023-12-07T05:12:30;10.33;;;6.93;;
39620;SDS011;25309;48.686;9.170;2023-12-07T05:14:58;11.70;;;7.93;;
39620;SDS011;25309;48.686;9.170;2023-12-07T05:17:24;11.37;;;7.70;;
39620;SDS011;25309;48.686;9.170;2023-12-07T05:19:53;11.03;;;7.03;;
39620;SDS011;25309;48.686;9.170;2023-12-07T05:22:20;9.93;;;6.63;;
39620;SDS011;25309;48.686;9.170;2023-12-07T05:24:48;10.40;;;7.23;;
39620;SDS011;25309;48.686;9.170;2023-12-07T05:27:16;10.47;;;6.87;;
39620;SDS011;25309;48.686;9.170;2023-12-07T05:29:43;11.23;;;7.40;;
39620;SDS011;25309;48.686;9.170;2023-12-07T05:32:10;10.43;;;6.63;;
39620;SDS011;25309;48.686;9.170;2023-12-07T05:34:37;9.53;;;6.33;;
39620;SDS011;25309;48.686;9.170;2023-12-07T05:37:06;9.97;;;6.87;;
39620;SDS011;25309;48.686;9.170;2023-12-07T05:39:34;9.27;;;6.53;;
39620;SDS011;25309;48.686;9.170;2023-12-07T05:42:01;10.70;;;7.20;;
39620;SDS011;25309;48.686;9.170;2023-12-07T05:44:30;10.23;;;7.10;;
39620;SDS011;25309;48.686;9.170;2023-12-07T05:46:57;11.63;;;7.37;;
39620;SDS011;25309;48.686;9.170;2023-12-07T05:49:24;10.27;;;6.60;;
39620;SDS011;25309;48.686;9.170;2023-12-07T05:51:52;10.60;;;6.90;;
39620;SDS011;25309;48.686;9.170;2023-12-07T05:54:21;10.87;;;6.87;;
39620;SDS011;25309;48.686;9.170;2023-12-07T05:56:50;10.07;;;6.60;;
39620;SDS011;25309;48.686;9.170;2023-12-07T05:59:17;12.37;;;7.23;;
39620;SDS011;25309;48.686;9.170;2023-12-07T06:01:44;9.50;;;6.73;;
39620;SDS011;25309;48.686;9.170;2023-12-07T06:04:11;9.00;;;6.30;;
39620;SDS011;25309;48.686;9.170;2023-12-07T06:06:39;9.50;;;6.87;;
39620;SDS011;25309;48.686;9.170;2023-12-07T06:09:06;12.27;;;7.00;;
39620;SDS011;25309;48.686;9.170;2023-12-07T06:11:35;10.57;;;7.17;;
39620;SDS011;25309;48.686;9.170;2023-12-07T06:14:02;9.43;;;6.60;;
39620;SDS011;25309;48.686;9.170;2023-12-07T06:16:32;10.03;;;6.83;;
39620;SDS011;25309;48.686;9.170;2023-12-07T06:18:59;9.10;;;6.57;;
39620;SDS011;25309;48.686;9.170;2023-12-07T06:21:26;10.17;;;6.80;;
39620;SDS011;25309;48.686;9.170;2023-12-07T06:23:56;12.00;;;6.97;;
39620;SDS011;25309;48.686;9.170;2023-12-07T06:26:23;11.10;;;6.90;;
39620;SDS011;25309;48.686;9.170;2023-12-07T06:28:52;9.70;;;6.73;;
39620;SDS011;25309;48.686;9.170;2023-12-07T06:31:19;10.33;;;7.00;;
39620;SDS011;25309;48.686;9.170;2023-12-07T06:33:48;11.10;;;6.70;;
39620;SDS011;25309;48.686;9.170;2023-12-07T06:36:18;10.43;;;7.23;;
39620;SDS011;25309;48.686;9.170;2023-12-07T06:38:46;10.57;;;7.13;;
39620;SDS011;25309;48.686;9.170;2023-12-07T06:41:14;10.40;;;7.10;;
39620;SDS011;25309;48.686;9.170;2023-12-07T06:43:42;10.77;;;7.57;;
39620;SDS011;25309;48.686;9.170;2023-12-07T06:46:12;11.90;;;7.70;;
39620;SDS011;25309;48.686;9.170;2023-12-07T06:48:40;12.00;;;7.57;;
39620;SDS011;25309;48.686;9.170;2023-12-07T06:51:07;10.77;;;7.33;;
39620;SDS011;25309;48.686;9.170;2023-12-07T06:53:34;10.70;;;7.80;;
39620;SDS011;25309;48.686;9.170;2023-12-07T06:56:01;11.93;;;8.17;;
39620;SDS011;25309;48.686;9.170;2023-12-07T06:58:28;11.23;;;7.83;;
39620;SDS011;25309;48.686;9.170;2023-12-07T07:00:56;11.33;;;7.43;;
39620;SDS011;25309;48.686;9.170;2023-12-07T07:03:25;11.80;;;7.40;;
39620;SDS011;25309;48.686;9.170;2023-12-07T07:05:54;13.13;;;8.40;;
39620;SDS011;25309;48.686;9.170;2023-12-07T07:08:21;12.87;;;8.30;;
39620;SDS011;25309;48.686;9.170;2023-12-07T07:10:48;12.03;;;7.47;;
39620;SDS011;25309;48.686;9.170;2023-12-07T07:13:15;14.47;;;8.67;;
39620;SDS011;25309;48.686;9.170;2023-12-07T07:15:43;13.70;;;9.13;;
39620;SDS011;25309;48.686;9.170;2023-12-07T07:18:10;13.63;;;9.27;;
39620;SDS011;25309;48.686;9.170;2023-12-07T07:20:39;11.80;;;8.23;;
39620;SDS011;25309;48.686;9.170;2023-12-07T07:23:06;13.57;;;8.80;;
39620;SDS011;25309;48.686;9.170;2023-12-07T07:25:34;13.23;;;8.40;;
39620;SDS011;25309;48.686;9.170;2023-12-07T07:28:02;12.67;;;8.43;;
39620;SDS011;25309;48.686;9.170;2023-12-07T07:30:30;11.67;;;7.60;;
39620;SDS011;25309;48.686;9.170;2023-12-07T07:32:56;13.97;;;8.43;;
39620;SDS011;25309;48.686;9.170;2023-12-07T07:35:23;13.23;;;8.33;;
39620;SDS011;25309;48.686;9.170;2023-12-07T07:37:52;11.67;;;8.77;;
39620;SDS011;25309;48.686;9.170;2023-12-07T07:40:20;13.37;;;8.87;;
39620;SDS011;25309;48.686;9.170;2023-12-07T07:42:47;14.60;;;9.50;;
39620;SDS011;25309;48.686;9.170;2023-12-07T07:45:14;16.20;;;9.13;;
39620;SDS011;25309;48.686;9.170;2023-12-07T07:47:42;15.40;;;8.80;;
39620;SDS011;25309;48.686;9.170;2023-12-07T07:50:10;16.63;;;9.07;;
39620;SDS011;25309;48.686;9.170;2023-12-07T07:52:37;13.50;;;8.80;;
39620;SDS011;25309;48.686;9.170;2023-12-07T07:55:08;11.33;;;7.77;;
39620;SDS011;25309;48.686;9.170;2023-12-07T07:57:36;12.07;;;7.77;;
39620;SDS011;25309;48.686;9.170;2023-12-07T08:00:03;12.90;;;8.17;;
39620;SDS011;25309;48.686;9.170;2023-12-07T08:02:31;13.43;;;9.07;;
39620;SDS011;25309;48.686;9.170;2023-12-07T08:04:58;11.63;;;8.03;;
39620;SDS011;25309;48.686;9.170;2023-12-07T08:07:26;13.13;;;8.20;;
39620;SDS011;25309;48.686;9.170;2023-12-07T08:09:53;11.57;;;7.57;;
39620;SDS011;25309;48.686;9.170;2023-12-07T08:12:22;9.80;;;7.03;;
39620;SDS011;25309;48.686;9.170;2023-12-07T08:14:49;12.07;;;7.53;;
39620;SDS011;25309;48.686;9.170;2023-12-07T08:17:16;13.07;;;7.63;;
39620;SDS011;25309;48.686;9.170;2023-12-07T08:19:45;11.13;;;7.20;;
39620;SDS011;25309;48.686;9.170;2023-12-07T08:22:14;11.03;;;7.17;;
39620;SDS011;25309;48.686;9.170;2023-12-07T08:24:42;12.67;;;8.33;;
39620;SDS011;25309;48.686;9.170;2023-12-07T08:27:10;12.07;;;8.30;;
39620;SDS011;25309;48.686;9.170;2023-12-07T08:29:39;13.50;;;8.57;;
39620;SDS011;25309;48.686;9.170;2023-12-07T08:32:06;10.63;;;7.00;;
39620;SDS011;25309;48.686;9.170;2023-12-07T08:34:33;10.20;;;6.43;;
39620;SDS011;25309;48.686;9.170;2023-12-07T08:37:00;9.07;;;6.43;;
39620;SDS011;25309;48.686;9.170;2023-12-07T08:39:27;8.67;;;5.90;;
39620;SDS011;25309;48.686;9.170;2023-12-07T08:41:54;9.33;;;6.00;;
39620;SDS011;25309;48.686;9.170;2023-12-07T08:44:21;8.67;;;5.63;;
39620;SDS011;25309;48.686;9.170;2023-12-07T08:46:49;10.57;;;6.70;;
39620;SDS011;25309;48.686;9.170;2023-12-07T08:49:16;10.93;;;6.60;;
39620;SDS011;25309;48.686;9.170;2023-12-07T08:51:43;10.80;;;6.47;;
39620;SDS011;25309;48.686;9.170;2023-12-07T08:54:31;9.27;;;6.67;;
39620;SDS011;25309;48.686;9.170;2023-12-07T08:56:58;9.90;;;6.77;;
39620;SDS011;25309;48.686;9.170;2023-12-07T08:59:25;8.53;;;5.63;;
39620;SDS011;25309;48.686;9.170;2023-12-07T09:01:53;8.87;;;6.17;;
39620;SDS011;25309;48.686;9.170;2023-12-07T09:04:21;7.67;;;5.13;;
39620;SDS011;25309;48.686;9.170;2023-12-07T09:06:48;9.13;;;5.73;;
39620;SDS011;25309;48.686;9.170;2023-12-07T09:09:16;8.00;;;5.80;;
39620;SDS011;25309;48.686;9.170;2023-12-07T09:11:43;8.83;;;5.93;;
39620;SDS011;25309;48.686;9.170;2023-12-07T09:14:10;8.23;;;6.13;;
39620;SDS011;25309;48.686;9.170;2023-12-07T09:16:42;8.47;;;5.97;;
39620;SDS011;25309;48.686;9.170;2023-12-07T09:19:11;8.83;;;5.93;;
39620;SDS011;25309;48.686;9.170;2023-12-07T09:21:38;8.93;;;6.10;;
39620;SDS011;25309;48.686;9.170;2023-12-07T09:24:06;8.83;;;6.30;;
39620;SDS011;25309;48.686;9.170;2023-12-07T09:26:33;9.23;;;6.10;;
39620;SDS011;25309;48.686;9.170;2023-12-07T09:29:00;9.43;;;6.10;;
39620;SDS011;25309;48.686;9.170;2023-12-07T09:31:27;9.30;;;6.17;;
39620;SDS011;25309;48.686;9.170;2023-12-07T09:33:54;7.67;;;5.70;;
39620;SDS011;25309;48.686;9.170;2023-12-07T09:36:38;10.73;;;6.43;;
39620;SDS011;25309;48.686;9.170;2023-12-07T09:39:05;8.53;;;6.27;;
39620;SDS011;25309;48.686;9.170;2023-12-07T09:41:32;8.17;;;6.13;;
39620;SDS011;25309;48.686;9.170;2023-12-07T09:43:59;7.80;;;5.83;;
39620;SDS011;25309;48.686;9.170;2023-12-07T09:46:27;8.60;;;6.13;;
39620;SDS011;25309;48.686;9.170;2023-12-07T09:48:55;7.83;;;6.10;;
39620;SDS011;25309;48.686;9.170;2023-12-07T09:51:22;9.30;;;5.50;;
39620;SDS011;25309;48.686;9.170;2023-12-07T09:53:53;7.40;;;5.20;;
39620;SDS011;25309;48.686;9.170;2023-12-07T09:56:21;7.73;;;5.10;;
39620;SDS011;25309;48.686;9.170;2023-12-07T09:58:48;7.90;;;5.07;;
39620;SDS011;25309;48.686;9.170;2023-12-07T10:01:15;8.10;;;5.40;;
39620;SDS011;25309;48.686;9.170;2023-12-07T10:03:42;7.07;;;5.10;;
39620;SDS011;25309;48.686;9.170;2023-12-07T10:06:10;9.13;;;5.43;;
39620;SDS011;25309;48.686;9.170;2023-12-07T10:08:37;7.80;;;4.93;;
39620;SDS011;25309;48.686;9.170;2023-12-07T10:11:06;6.63;;;5.00;;
39620;SDS011;25309;48.686;9.170;2023-12-07T10:13:34;6.87;;;4.90;;
39620;SDS011;25309;48.686;9.170;2023-12-07T10:16:06;6.73;;;4.80;;
39620;SDS011;25309;48.686;9.170;2023-12-07T10:18:35;8.87;;;4.73;;
39620;SDS011;25309;48.686;9.170;2023-12-07T10:21:04;6.87;;;4.70;;
39620;SDS011;25309;48.686;9.170;2023-12-07T10:23:31;8.37;;;4.57;;
39620;SDS011;25309;48.686;9.170;2023-12-07T10:25:59;6.03;;;4.00;;
39620;SDS011;25309;48.686;9.170;2023-12-07T10:28:28;7.83;;;4.00;;
39620;SDS011;25309;48.686;9.170;2023-12-07T10:30:56;5.63;;;4.00;;
39620;SDS011;25309;48.686;9.170;2023-12-07T10:33:23;5.43;;;3.80;;
39620;SDS011;25309;48.686;9.170;2023-12-07T10:35:52;6.60;;;4.00;;
39620;SDS011;25309;48.686;9.170;2023-12-07T10:38:19;6.50;;;4.00;;
39620;SDS011;25309;48.686;9.170;2023-12-07T10:40:46;5.57;;;3.93;;
39620;SDS011;25309;48.686;9.170;2023-12-07T10:43:13;5.10;;;3.80;;
39620;SDS011;25309;48.686;9.170;2023-12-07T10:45:47;5.67;;;4.17;;
39620;SDS011;25309;48.686;9.170;2023-12-07T10:48:14;5.27;;;4.00;;
39620;SDS011;25309;48.686;9.170;2023-12-07T10:50:42;5.03;;;3.97;;
39620;SDS011;25309;48.686;9.170;2023-12-07T10:53:15;4.93;;;3.50;;
39620;SDS011;25309;48.686;9.170;2023-12-07T10:55:47;5.80;;;3.80;;
39620;SDS011;25309;48.686;9.170;2023-12-07T10:58:19;5.47;;;3.20;;
39620;SDS011;25309;48.686;9.170;2023-12-07T11:00:49;4.80;;;3.40;;
39620;SDS011;25309;48.686;9.170;2023-12-07T11:03:16;6.17;;;3.20;;
39620;SDS011;25309;48.686;9.170;2023-12-07T11:05:45;4.07;;;2.73;;
39620;SDS011;25309;48.686;9.170;2023-12-07T11:08:17;4.87;;;2.93;;
39620;SDS011;25309;48.686;9.170;2023-12-07T11:10:51;4.30;;;2.93;;
39620;SDS011;25309;48.686;9.170;2023-12-07T11:13:26;4.63;;;3.30;;
39620;SDS011;25309;48.686;9.170;2023-12-07T11:15:56;4.13;;;3.43;;
39620;SDS011;25309;48.686;9.170;2023-12-07T11:18:24;4.73;;;3.70;;
39620;SDS011;25309;48.686;9.170;2023-12-07T11:20:52;5.47;;;3.90;;
39620;SDS011;25309;48.686;9.170;2023-12-07T11:23:21;4.60;;;3.17;;
39620;SDS011;25309;48.686;9.170;2023-12-07T11:25:48;5.50;;;3.93;;
39620;SDS011;25309;48.686;9.170;2023-12-07T11:28:17;6.57;;;3.67;;
39620;SDS011;25309;48.686;9.170;2023-12-07T11:30:45;6.57;;;3.60;;
39620;SDS011;25309;48.686;9.170;2023-12-07T11:33:15;5.40;;;3.93;;
39620;SDS011;25309;48.686;9.170;2023-12-07T11:36:02;5.80;;;3.33;;
39620;SDS011;25309;48.686;9.170;2023-12-07T11:38:30;4.17;;;3.63;;
39620;SDS011;25309;48.686;9.170;2023-12-07T11:40:57;5.23;;;3.87;;
39620;SDS011;25309;48.686;9.170;2023-12-07T11:43:36;5.13;;;3.93;;
39620;SDS011;25309;48.686;9.170;2023-12-07T11:46:07;7.33;;;4.33;;
39620;SDS011;25309;48.686;9.170;2023-12-07T11:48:35;5.13;;;3.60;;
39620;SDS011;25309;48.686;9.170;2023-12-07T11:51:03;4.77;;;3.20;;
39620;SDS011;25309;48.686;9.170;2023-12-07T11:53:32;5.00;;;3.10;;
39620;SDS011;25309;48.686;9.170;2023-12-07T11:56:01;4.50;;;3.00;;
39620;SDS011;25309;48.686;9.170;2023-12-07T11:58:30;6.57;;;3.47;;
39620;SDS011;25309;48.686;9.170;2023-12-07T12:01:03;5.07;;;3.80;;
39620;SDS011;25309;48.686;9.170;2023-12-07T12:03:31;6.87;;;3.60;;
39620;SDS011;25309;48.686;9.170;2023-12-07T12:06:01;5.23;;;3.33;;
39620;SDS011;25309;48.686;9.170;2023-12-07T12:08:30;4.80;;;3.40;;
39620;SDS011;25309;48.686;9.170;2023-12-07T12:10:57;4.10;;;3.37;;
39620;SDS011;25309;48.686;9.170;2023-12-07T12:13:28;4.63;;;3.53;;
39620;SDS011;25309;48.686;9.170;2023-12-07T12:15:56;5.27;;;3.30;;
39620;SDS011;25309;48.686;9.170;2023-12-07T12:18:28;4.67;;;3.27;;
39620;SDS011;25309;48.686;9.170;2023-12-07T12:20:55;4.73;;;3.50;;
39620;SDS011;25309;48.686;9.170;2023-12-07T12:23:27;5.77;;;3.80;;
39620;SDS011;25309;48.686;9.170;2023-12-07T12:25:55;4.73;;;3.87;;
39620;SDS011;25309;48.686;9.170;2023-12-07T12:28:23;4.53;;;3.67;;
39620;SDS011;25309;48.686;9.170;2023-12-07T12:30:51;4.93;;;3.90;;
39620;SDS011;25309;48.686;9.170;2023-12-07T12:33:19;6.33;;;3.80;;
39620;SDS011;25309;48.686;9.170;2023-12-07T12:35:46;5.60;;;3.63;;
39620;SDS011;25309;48.686;9.170;2023-12-07T12:38:13;5.80;;;3.70;;
39620;SDS011;25309;48.686;9.170;2023-12-07T12:40:54;5.77;;;3.80;;
39620;SDS011;25309;48.686;9.170;2023-12-07T12:43:21;4.97;;;3.83;;
39620;SDS011;25309;48.686;9.170;2023-12-07T12:45:49;5.40;;;3.90;;
39620;SDS011;25309;48.686;9.170;2023-12-07T12:48:31;5.73;;;4.00;;
39620;SDS011;25309;48.686;9.170;2023-12-07T12:50:59;5.53;;;3.83;;
39620;SDS011;25309;48.686;9.170;2023-12-07T12:53:34;5.23;;;3.53;;
39620;SDS011;25309;48.686;9.170;2023-12-07T12:56:04;5.80;;;3.27;;
39620;SDS011;25309;48.686;9.170;2023-12-07T12:58:31;5.40;;;3.80;;
39620;SDS011;25309;48.686;9.170;2023-12-07T13:00:58;5.20;;;3.63;;
39620;SDS011;25309;48.686;9.170;2023-12-07T13:03:28;5.40;;;3.40;;
39620;SDS011;25309;48.686;9.170;2023-12-07T13:05:55;5.60;;;3.80;;
39620;SDS011;25309;48.686;9.170;2023-12-07T13:08:22;4.73;;;3.50;;
39620;SDS011;25309;48.686;9.170;2023-12-07T13:10:49;6.53;;;4.10;;
39620;SDS011;25309;48.686;9.170;2023-12-07T13:13:18;6.50;;;4.10;;
39620;SDS011;25309;48.686;9.170;2023-12-07T13:15:45;6.60;;;3.90;;
39620;SDS011;25309;48.686;9.170;2023-12-07T13:18:12;5.40;;;3.80;;
39620;SDS011;25309;48.686;9.170;2023-12-07T13:20:39;5.40;;;3.90;;
39620;SDS011;25309;48.686;9.170;2023-12-07T13:23:20;4.90;;;3.77;;
39620;SDS011;25309;48.686;9.170;2023-12-07T13:25:47;5.43;;;3.83;;
39620;SDS011;25309;48.686;9.170;2023-12-07T13:28:15;5.93;;;3.73;;
39620;SDS011;25309;48.686;9.170;2023-12-07T13:30:43;4.57;;;2.97;;
39620;SDS011;25309;48.686;9.170;2023-12-07T13:33:10;4.50;;;3.47;;
39620;SDS011;25309;48.686;9.170;2023-12-07T13:35:52;5.60;;;3.27;;
39620;SDS011;25309;48.686;9.170;2023-12-07T13:38:21;6.67;;;3.20;;
39620;SDS011;25309;48.686;9.170;2023-12-07T13:40:50;5.13;;;3.00;;
39620;SDS011;25309;48.686;9.170;2023-12-07T13:43:16;4.87;;;3.30;;
39620;SDS011;25309;48.686;9.170;2023-12-07T13:45:46;4.83;;;3.57;;
39620;SDS011;25309;48.686;9.170;2023-12-07T13:48:13;4.70;;;3.50;;
39620;SDS011;25309;48.686;9.170;2023-12-07T13:50:41;4.20;;;3.33;;
39620;SDS011;25309;48.686;9.170;2023-12-07T13:53:09;5.03;;;3.33;;
39620;SDS011;25309;48.686;9.170;2023-12-07T13:55:37;4.63;;;3.37;;
39620;SDS011;25309;48.686;9.170;2023-12-07T13:58:05;3.87;;;3.20;;
39620;SDS011;25309;48.686;9.170;2023-12-07T14:00:39;5.13;;;3.73;;
39620;SDS011;25309;48.686;9.170;2023-12-07T14:03:07;4.80;;;3.00;;
39620;SDS011;25309;48.686;9.170;2023-12-07T14:05:34;4.87;;;3.00;;
39620;SDS011;25309;48.686;9.170;2023-12-07T14:08:02;7.60;;;2.70;;
39620;SDS011;25309;48.686;9.170;2023-12-07T14:10:29;5.03;;;2.93;;
39620;SDS011;25309;48.686;9.170;2023-12-07T14:12:58;6.10;;;2.57;;
39620;SDS011;25309;48.686;9.170;2023-12-07T14:15:25;4.30;;;2.70;;
39620;SDS011;25309;48.686;9.170;2023-12-07T14:18:09;4.30;;;2.43;;
39620;SDS011;25309;48.686;9.170;2023-12-07T14:20:36;3.23;;;2.00;;
39620;SDS011;25309;48.686;9.170;2023-12-07T14:23:24;3.27;;;1.80;;
39620;SDS011;25309;48.686;9.170;2023-12-07T14:25:51;2.27;;;1.70;;
39620;SDS011;25309;48.686;9.170;2023-12-07T14:28:18;3.47;;;1.97;;
39620;SDS011;25309;48.686;9.170;2023-12-07T14:30:45;2.37;;;1.70;;
39620;SDS011;25309;48.686;9.170;2023-12-07T14:33:13;3.73;;;1.80;;
39620;SDS011;25309;48.686;9.170;2023-12-07T14:35:40;4.83;;;2.00;;
39620;SDS011;25309;48.686;9.170;2023-12-07T14:38:08;5.77;;;1.80;;
39620;SDS011;25309;48.686;9.170;2023-12-07T14:40:34;2.83;;;1.63;;
39620;SDS011;25309;48.686;9.170;2023-12-07T14:43:01;2.93;;;1.90;;
39620;SDS011;25309;48.686;9.170;2023-12-07T14:45:30;2.97;;;1.77;;
39620;SDS011;25309;48.686;9.170;2023-12-07T14:47:57;4.13;;;1.87;;
39620;SDS011;25309;48.686;9.170;2023-12-07T14:50:26;3.80;;;1.90;;